sensor_id;sensor_type;location;lat;lon;timestamp;pressure;altitude;pressure_sealevel;temperature;humidity
39209;BME280;24929;51.982;4.664;2022-12-29T00:02:07;75767.22;;;-143.36;nan
39209;BME280;24929;51.982;4.664;2022-12-29T00:04:33;75773.22;;;-143.36;nan
39209;BME280;24929;51.982;4.664;2022-12-29T00:06:58;75801.31;;;-143.36;nan
39209;BME280;24929;51.982;4.664;2022-12-29T00:09:25;75773.22;;;-143.36;nan
39209;BME280;24929;51.982;4.664;2022-12-29T00:11:51;75785.28;;;-143.36;nan
39209;BME280;24929;51.982;4.664;2022-12-29T00:14:16;75771.22;;;-143.36;nan
39209;BME280;24929;51.982;4.664;2022-12-29T00:17:00;75715.03;;;-143.36;nan
39209;BME280;24929;51.982;4.664;2022-12-29T00:19:26;75747.16;;;-143.36;nan
39209;BME280;24929;51.982;4.664;2022-12-29T00:22:11;75713.03;;;-143.36;nan
39209;BME280;24929;51.982;4.664;2022-12-29T00:24:56;75717.06;;;-143.36;nan
39209;BME280;24929;51.982;4.664;2022-12-29T00:27:40;75707.03;;;-143.36;nan
39209;BME280;24929;51.982;4.664;2022-12-29T00:30:24;75751.16;;;-143.36;nan
39209;BME280;24929;51.982;4.664;2022-12-29T00:33:13;75697.00;;;-143.36;nan
39209;BME280;24929;51.982;4.664;2022-12-29T00:36:04;75707.03;;;-143.36;nan
39209;BME280;24929;51.982;4.664;2022-12-29T00:38:36;75723.06;;;-143.36;nan
39209;BME280;24929;51.982;4.664;2022-12-29T00:41:21;75753.16;;;-143.36;nan
39209;BME280;24929;51.982;4.664;2022-12-29T00:44:05;75731.09;;;-143.36;nan
39209;BME280;24929;51.982;4.664;2022-12-29T00:46:35;75731.09;;;-143.36;nan
39209;BME280;24929;51.982;4.664;2022-12-29T00:49:00;75763.19;;;-143.36;nan
39209;BME280;24929;51.982;4.664;2022-12-29T00:51:45;75739.13;;;-143.36;nan
39209;BME280;24929;51.982;4.664;2022-12-29T00:54:12;75783.25;;;-143.36;nan
39209;BME280;24929;51.982;4.664;2022-12-29T00:56:37;75757.19;;;-143.36;nan
39209;BME280;24929;51.982;4.664;2022-12-29T00:59:05;75743.13;;;-143.36;nan
39209;BME280;24929;51.982;4.664;2022-12-29T01:01:31;75751.16;;;-143.36;nan
39209;BME280;24929;51.982;4.664;2022-12-29T01:03:57;75797.31;;;-143.36;nan
39209;BME280;24929;51.982;4.664;2022-12-29T01:06:22;75815.38;;;-143.36;nan
39209;BME280;24929;51.982;4.664;2022-12-29T01:08:47;75825.41;;;-143.36;nan
39209;BME280;24929;51.982;4.664;2022-12-29T01:11:34;75805.34;;;-143.36;nan
39209;BME280;24929;51.982;4.664;2022-12-29T01:13:59;75813.34;;;-143.36;nan
39209;BME280;24929;51.982;4.664;2022-12-29T01:16:24;75817.38;;;-143.36;nan
39209;BME280;24929;51.982;4.664;2022-12-29T01:18:50;75807.34;;;-143.36;nan
39209;BME280;24929;51.982;4.664;2022-12-29T01:21:15;75837.44;;;-143.36;nan
39209;BME280;24929;51.982;4.664;2022-12-29T01:23:40;75813.34;;;-143.36;nan
39209;BME280;24929;51.982;4.664;2022-12-29T01:26:14;75767.22;;;-143.36;nan
39209;BME280;24929;51.982;4.664;2022-12-29T01:28:39;75807.34;;;-143.36;nan
39209;BME280;24929;51.982;4.664;2022-12-29T01:31:07;75827.41;;;-143.36;nan
39209;BME280;24929;51.982;4.664;2022-12-29T01:33:32;75829.41;;;-143.36;nan
39209;BME280;24929;51.982;4.664;2022-12-29T01:36:06;75753.16;;;-143.36;nan
39209;BME280;24929;51.982;4.664;2022-12-29T01:38:33;75795.31;;;-143.36;nan
39209;BME280;24929;51.982;4.664;2022-12-29T01:40:58;75797.31;;;-143.36;nan
39209;BME280;24929;51.982;4.664;2022-12-29T01:43:50;75731.09;;;-143.36;nan
39209;BME280;24929;51.982;4.664;2022-12-29T01:46:30;75737.13;;;-143.36;nan
39209;BME280;24929;51.982;4.664;2022-12-29T01:49:10;75767.22;;;-143.36;nan
39209;BME280;24929;51.982;4.664;2022-12-29T01:51:43;75779.25;;;-143.36;nan
39209;BME280;24929;51.982;4.664;2022-12-29T01:54:15;75749.16;;;-143.36;nan
39209;BME280;24929;51.982;4.664;2022-12-29T01:56:42;75743.13;;;-143.36;nan
39209;BME280;24929;51.982;4.664;2022-12-29T01:59:11;75737.13;;;-143.36;nan
39209;BME280;24929;51.982;4.664;2022-12-29T02:01:39;75761.19;;;-143.36;nan
39209;BME280;24929;51.982;4.664;2022-12-29T02:04:04;75773.22;;;-143.36;nan
39209;BME280;24929;51.982;4.664;2022-12-29T02:06:38;75779.25;;;-143.36;nan
39209;BME280;24929;51.982;4.664;2022-12-29T02:09:06;75831.41;;;-143.36;nan
39209;BME280;24929;51.982;4.664;2022-12-29T02:11:31;75799.31;;;-143.36;nan
39209;BME280;24929;51.982;4.664;2022-12-29T02:13:57;75789.28;;;-143.36;nan
39209;BME280;24929;51.982;4.664;2022-12-29T02:25:56;75759.19;;;-143.36;nan
39209;BME280;24929;51.982;4.664;2022-12-29T02:36:44;75739.13;;;-143.36;nan
39209;BME280;24929;51.982;4.664;2022-12-29T02:39:23;75759.19;;;-143.36;nan
39209;BME280;24929;51.982;4.664;2022-12-29T02:45:08;75751.16;;;-143.36;nan
39209;BME280;24929;51.982;4.664;2022-12-29T02:50:25;75785.28;;;-143.36;nan
39209;BME280;24929;51.982;4.664;2022-12-29T02:52:56;75835.44;;;-143.36;nan
39209;BME280;24929;51.982;4.664;2022-12-29T02:55:23;75879.56;;;-143.36;nan
39209;BME280;24929;51.982;4.664;2022-12-29T02:57:49;75849.47;;;-143.36;nan
39209;BME280;24929;51.982;4.664;2022-12-29T03:00:29;75829.41;;;-143.36;nan
39209;BME280;24929;51.982;4.664;2022-12-29T03:03:20;75787.28;;;-143.36;nan
39209;BME280;24929;51.982;4.664;2022-12-29T03:05:57;75821.38;;;-143.36;nan
39209;BME280;24929;51.982;4.664;2022-12-29T03:08:40;75831.41;;;-143.36;nan
39209;BME280;24929;51.982;4.664;2022-12-29T03:11:11;75807.34;;;-143.36;nan
39209;BME280;24929;51.982;4.664;2022-12-29T03:14:11;75823.38;;;-143.36;nan
39209;BME280;24929;51.982;4.664;2022-12-29T03:17:09;75803.31;;;-143.36;nan
39209;BME280;24929;51.982;4.664;2022-12-29T03:19:44;75823.38;;;-143.36;nan
39209;BME280;24929;51.982;4.664;2022-12-29T03:22:17;75789.28;;;-143.36;nan
39209;BME280;24929;51.982;4.664;2022-12-29T03:25:08;75777.25;;;-143.36;nan
39209;BME280;24929;51.982;4.664;2022-12-29T03:27:40;75777.25;;;-143.36;nan
39209;BME280;24929;51.982;4.664;2022-12-29T03:30:07;75841.44;;;-143.36;nan
39209;BME280;24929;51.982;4.664;2022-12-29T03:32:42;75791.28;;;-143.36;nan
39209;BME280;24929;51.982;4.664;2022-12-29T03:35:11;75801.31;;;-143.36;nan
39209;BME280;24929;51.982;4.664;2022-12-29T03:37:46;75783.25;;;-143.36;nan
39209;BME280;24929;51.982;4.664;2022-12-29T03:40:14;75835.44;;;-143.36;nan
39209;BME280;24929;51.982;4.664;2022-12-29T03:42:40;75825.41;;;-143.36;nan
39209;BME280;24929;51.982;4.664;2022-12-29T03:45:07;75821.38;;;-143.36;nan
39209;BME280;24929;51.982;4.664;2022-12-29T03:47:33;75835.44;;;-143.36;nan
39209;BME280;24929;51.982;4.664;2022-12-29T03:49:58;75835.44;;;-143.36;nan
39209;BME280;24929;51.982;4.664;2022-12-29T03:52:25;75813.34;;;-143.36;nan
39209;BME280;24929;51.982;4.664;2022-12-29T03:54:50;75831.41;;;-143.36;nan
39209;BME280;24929;51.982;4.664;2022-12-29T03:57:16;75839.44;;;-143.36;nan
39209;BME280;24929;51.982;4.664;2022-12-29T03:59:41;75849.47;;;-143.36;nan
39209;BME280;24929;51.982;4.664;2022-12-29T04:02:06;75831.41;;;-143.36;nan
39209;BME280;24929;51.982;4.664;2022-12-29T04:04:32;75833.41;;;-143.36;nan
39209;BME280;24929;51.982;4.664;2022-12-29T04:06:57;75833.41;;;-143.36;nan
39209;BME280;24929;51.982;4.664;2022-12-29T04:09:22;75829.41;;;-143.36;nan
39209;BME280;24929;51.982;4.664;2022-12-29T04:11:48;75837.44;;;-143.36;nan
39209;BME280;24929;51.982;4.664;2022-12-29T04:14:13;75863.53;;;-143.36;nan
39209;BME280;24929;51.982;4.664;2022-12-29T04:16:39;75859.50;;;-143.36;nan
39209;BME280;24929;51.982;4.664;2022-12-29T04:19:07;75791.28;;;-143.36;nan
39209;BME280;24929;51.982;4.664;2022-12-29T04:21:33;75853.47;;;-143.36;nan
39209;BME280;24929;51.982;4.664;2022-12-29T04:23:59;75875.56;;;-143.36;nan
39209;BME280;24929;51.982;4.664;2022-12-29T04:26:25;75873.56;;;-143.36;nan
39209;BME280;24929;51.982;4.664;2022-12-29T04:28:50;75901.63;;;-143.36;nan
39209;BME280;24929;51.982;4.664;2022-12-29T04:31:15;75881.56;;;-143.36;nan
39209;BME280;24929;51.982;4.664;2022-12-29T04:33:41;75889.59;;;-143.36;nan
39209;BME280;24929;51.982;4.664;2022-12-29T04:36:06;75915.69;;;-143.36;nan
39209;BME280;24929;51.982;4.664;2022-12-29T04:38:31;75911.66;;;-143.36;nan
39209;BME280;24929;51.982;4.664;2022-12-29T04:40:59;75873.56;;;-143.36;nan
39209;BME280;24929;51.982;4.664;2022-12-29T04:43:25;75937.75;;;-143.36;nan
39209;BME280;24929;51.982;4.664;2022-12-29T04:45:50;75947.78;;;-143.36;nan
39209;BME280;24929;51.982;4.664;2022-12-29T04:48:16;75917.69;;;-143.36;nan
39209;BME280;24929;51.982;4.664;2022-12-29T04:50:42;75879.56;;;-143.36;nan
39209;BME280;24929;51.982;4.664;2022-12-29T04:53:07;75893.63;;;-143.36;nan
39209;BME280;24929;51.982;4.664;2022-12-29T04:55:33;75917.69;;;-143.36;nan
39209;BME280;24929;51.982;4.664;2022-12-29T04:57:58;75937.75;;;-143.36;nan
39209;BME280;24929;51.982;4.664;2022-12-29T05:00:23;75903.66;;;-143.36;nan
39209;BME280;24929;51.982;4.664;2022-12-29T05:02:49;75901.63;;;-143.36;nan
39209;BME280;24929;51.982;4.664;2022-12-29T05:05:14;75917.69;;;-143.36;nan
39209;BME280;24929;51.982;4.664;2022-12-29T05:07:40;75927.72;;;-143.36;nan
39209;BME280;24929;51.982;4.664;2022-12-29T05:10:06;75941.75;;;-143.36;nan
39209;BME280;24929;51.982;4.664;2022-12-29T05:12:34;75949.78;;;-143.36;nan
39209;BME280;24929;51.982;4.664;2022-12-29T05:15:00;75973.88;;;-143.36;nan
39209;BME280;24929;51.982;4.664;2022-12-29T05:17:26;75937.75;;;-143.36;nan
39209;BME280;24929;51.982;4.664;2022-12-29T05:19:51;75973.88;;;-143.36;nan
39209;BME280;24929;51.982;4.664;2022-12-29T05:22:16;75983.91;;;-143.36;nan
39209;BME280;24929;51.982;4.664;2022-12-29T05:24:42;75989.91;;;-143.36;nan
39209;BME280;24929;51.982;4.664;2022-12-29T05:27:07;75993.94;;;-143.36;nan
39209;BME280;24929;51.982;4.664;2022-12-29T05:29:32;75955.81;;;-143.36;nan
39209;BME280;24929;51.982;4.664;2022-12-29T05:31:58;75981.91;;;-143.36;nan
39209;BME280;24929;51.982;4.664;2022-12-29T05:34:23;75967.84;;;-143.36;nan
39209;BME280;24929;51.982;4.664;2022-12-29T05:36:48;75947.78;;;-143.36;nan
39209;BME280;24929;51.982;4.664;2022-12-29T05:39:14;75955.81;;;-143.36;nan
39209;BME280;24929;51.982;4.664;2022-12-29T05:41:39;75949.78;;;-143.36;nan
39209;BME280;24929;51.982;4.664;2022-12-29T05:44:05;75969.84;;;-143.36;nan
39209;BME280;24929;51.982;4.664;2022-12-29T05:46:30;76018.00;;;-143.36;nan
39209;BME280;24929;51.982;4.664;2022-12-29T05:48:55;76005.97;;;-143.36;nan
39209;BME280;24929;51.982;4.664;2022-12-29T05:51:21;75989.91;;;-143.36;nan
39209;BME280;24929;51.982;4.664;2022-12-29T05:53:46;75987.91;;;-143.36;nan
39209;BME280;24929;51.982;4.664;2022-12-29T05:56:11;75973.88;;;-143.36;nan
39209;BME280;24929;51.982;4.664;2022-12-29T05:58:37;76001.97;;;-143.36;nan
39209;BME280;24929;51.982;4.664;2022-12-29T06:01:02;76042.09;;;-143.36;nan
39209;BME280;24929;51.982;4.664;2022-12-29T06:03:27;76010.00;;;-143.36;nan
39209;BME280;24929;51.982;4.664;2022-12-29T06:05:53;76014.00;;;-143.36;nan
39209;BME280;24929;51.982;4.664;2022-12-29T06:08:18;76018.00;;;-143.36;nan
39209;BME280;24929;51.982;4.664;2022-12-29T06:10:43;76042.09;;;-143.36;nan
39209;BME280;24929;51.982;4.664;2022-12-29T06:13:09;76060.16;;;-143.36;nan
39209;BME280;24929;51.982;4.664;2022-12-29T06:15:35;76050.13;;;-143.36;nan
39209;BME280;24929;51.982;4.664;2022-12-29T06:18:00;76060.16;;;-143.36;nan
39209;BME280;24929;51.982;4.664;2022-12-29T06:20:26;76018.00;;;-143.36;nan
39209;BME280;24929;51.982;4.664;2022-12-29T06:22:51;76018.00;;;-143.36;nan
39209;BME280;24929;51.982;4.664;2022-12-29T06:25:16;76040.09;;;-143.36;nan
39209;BME280;24929;51.982;4.664;2022-12-29T06:27:42;76024.03;;;-143.36;nan
39209;BME280;24929;51.982;4.664;2022-12-29T06:30:09;75995.94;;;-143.36;nan
39209;BME280;24929;51.982;4.664;2022-12-29T06:32:35;76034.06;;;-143.36;nan
39209;BME280;24929;51.982;4.664;2022-12-29T06:35:01;76066.16;;;-143.36;nan
39209;BME280;24929;51.982;4.664;2022-12-29T06:37:27;76046.09;;;-143.36;nan
39209;BME280;24929;51.982;4.664;2022-12-29T06:39:53;76062.16;;;-143.36;nan
39209;BME280;24929;51.982;4.664;2022-12-29T06:42:18;76074.19;;;-143.36;nan
39209;BME280;24929;51.982;4.664;2022-12-29T06:44:43;76056.13;;;-143.36;nan
39209;BME280;24929;51.982;4.664;2022-12-29T06:50:31;76092.25;;;-143.36;nan
39209;BME280;24929;51.982;4.664;2022-12-29T06:52:56;76090.25;;;-143.36;nan
39209;BME280;24929;51.982;4.664;2022-12-29T06:55:21;76070.19;;;-143.36;nan
39209;BME280;24929;51.982;4.664;2022-12-29T06:57:47;76076.19;;;-143.36;nan
39209;BME280;24929;51.982;4.664;2022-12-29T07:00:13;76050.13;;;-143.36;nan
39209;BME280;24929;51.982;4.664;2022-12-29T07:02:38;76098.28;;;-143.36;nan
39209;BME280;24929;51.982;4.664;2022-12-29T07:05:04;76060.16;;;-143.36;nan
39209;BME280;24929;51.982;4.664;2022-12-29T07:07:29;76072.19;;;-143.36;nan
39209;BME280;24929;51.982;4.664;2022-12-29T07:09:54;76116.31;;;-143.36;nan
39209;BME280;24929;51.982;4.664;2022-12-29T07:12:20;76076.19;;;-143.36;nan
39209;BME280;24929;51.982;4.664;2022-12-29T07:14:46;76108.31;;;-143.36;nan
39209;BME280;24929;51.982;4.664;2022-12-29T07:17:11;76102.28;;;-143.36;nan
39209;BME280;24929;51.982;4.664;2022-12-29T07:19:36;76122.34;;;-143.36;nan
39209;BME280;24929;51.982;4.664;2022-12-29T07:22:02;76092.25;;;-143.36;nan
39209;BME280;24929;51.982;4.664;2022-12-29T07:24:27;76114.31;;;-143.36;nan
39209;BME280;24929;51.982;4.664;2022-12-29T07:26:53;76100.28;;;-143.36;nan
39209;BME280;24929;51.982;4.664;2022-12-29T07:29:18;76080.22;;;-143.36;nan
39209;BME280;24929;51.982;4.664;2022-12-29T07:31:45;76028.03;;;-143.36;nan
39209;BME280;24929;51.982;4.664;2022-12-29T07:34:10;76070.19;;;-143.36;nan
39209;BME280;24929;51.982;4.664;2022-12-29T07:36:35;76086.22;;;-143.36;nan
39209;BME280;24929;51.982;4.664;2022-12-29T07:39:02;76060.16;;;-143.36;nan
39209;BME280;24929;51.982;4.664;2022-12-29T07:44:34;76068.19;;;-143.36;nan
39209;BME280;24929;51.982;4.664;2022-12-29T07:46:59;76042.09;;;-143.36;nan
39209;BME280;24929;51.982;4.664;2022-12-29T07:49:24;76050.13;;;-143.36;nan
39209;BME280;24929;51.982;4.664;2022-12-29T07:51:50;76064.16;;;-143.36;nan
39209;BME280;24929;51.982;4.664;2022-12-29T07:54:15;76028.03;;;-143.36;nan
39209;BME280;24929;51.982;4.664;2022-12-29T07:56:43;76034.06;;;-143.36;nan
39209;BME280;24929;51.982;4.664;2022-12-29T07:59:09;76040.09;;;-143.36;nan
39209;BME280;24929;51.982;4.664;2022-12-29T08:01:34;76030.06;;;-143.36;nan
39209;BME280;24929;51.982;4.664;2022-12-29T08:03:59;76050.13;;;-143.36;nan
39209;BME280;24929;51.982;4.664;2022-12-29T08:06:25;76050.13;;;-143.36;nan
39209;BME280;24929;51.982;4.664;2022-12-29T08:08:50;76028.03;;;-143.36;nan
39209;BME280;24929;51.982;4.664;2022-12-29T08:11:15;76012.00;;;-143.36;nan
39209;BME280;24929;51.982;4.664;2022-12-29T08:13:41;76028.03;;;-143.36;nan
39209;BME280;24929;51.982;4.664;2022-12-29T08:16:06;76044.09;;;-143.36;nan
39209;BME280;24929;51.982;4.664;2022-12-29T08:18:31;76028.03;;;-143.36;nan
39209;BME280;24929;51.982;4.664;2022-12-29T08:21:01;75985.91;;;-143.36;nan
39209;BME280;24929;51.982;4.664;2022-12-29T08:23:27;76046.09;;;-143.36;nan
39209;BME280;24929;51.982;4.664;2022-12-29T08:26:00;75995.94;;;-143.36;nan
39209;BME280;24929;51.982;4.664;2022-12-29T08:28:25;76046.09;;;-143.36;nan
39209;BME280;24929;51.982;4.664;2022-12-29T08:30:51;76056.13;;;-143.36;nan
39209;BME280;24929;51.982;4.664;2022-12-29T08:33:16;76064.16;;;-143.36;nan
39209;BME280;24929;51.982;4.664;2022-12-29T08:35:41;76092.25;;;-143.36;nan
39209;BME280;24929;51.982;4.664;2022-12-29T08:38:08;76084.22;;;-143.36;nan
39209;BME280;24929;51.982;4.664;2022-12-29T08:40:33;76102.28;;;-143.36;nan
39209;BME280;24929;51.982;4.664;2022-12-29T08:42:59;76110.31;;;-143.36;nan
39209;BME280;24929;51.982;4.664;2022-12-29T08:45:24;76120.34;;;-143.36;nan
39209;BME280;24929;51.982;4.664;2022-12-29T08:47:49;76132.38;;;-143.36;nan
39209;BME280;24929;51.982;4.664;2022-12-29T08:50:15;76118.34;;;-143.36;nan
39209;BME280;24929;51.982;4.664;2022-12-29T08:52:40;76092.25;;;-143.36;nan
39209;BME280;24929;51.982;4.664;2022-12-29T08:55:06;76104.28;;;-143.36;nan
39209;BME280;24929;51.982;4.664;2022-12-29T08:57:31;76146.44;;;-143.36;nan
39209;BME280;24929;51.982;4.664;2022-12-29T08:59:56;76136.41;;;-143.36;nan
39209;BME280;24929;51.982;4.664;2022-12-29T09:02:22;76162.47;;;-143.36;nan
39209;BME280;24929;51.982;4.664;2022-12-29T09:04:47;76170.50;;;-143.36;nan
39209;BME280;24929;51.982;4.664;2022-12-29T09:07:12;76170.50;;;-143.36;nan
39209;BME280;24929;51.982;4.664;2022-12-29T09:09:38;76140.41;;;-143.36;nan
39209;BME280;24929;51.982;4.664;2022-12-29T09:12:03;76158.47;;;-143.36;nan
39209;BME280;24929;51.982;4.664;2022-12-29T09:14:28;76152.44;;;-143.36;nan
39209;BME280;24929;51.982;4.664;2022-12-29T09:16:54;76156.47;;;-143.36;nan
39209;BME280;24929;51.982;4.664;2022-12-29T09:19:38;76176.53;;;-143.36;nan
39209;BME280;24929;51.982;4.664;2022-12-29T09:22:03;76134.38;;;-143.36;nan
39209;BME280;24929;51.982;4.664;2022-12-29T09:24:28;76152.44;;;-143.36;nan
39209;BME280;24929;51.982;4.664;2022-12-29T09:26:54;76182.53;;;-143.36;nan
39209;BME280;24929;51.982;4.664;2022-12-29T09:29:19;76168.50;;;-143.36;nan
39209;BME280;24929;51.982;4.664;2022-12-29T09:31:44;76206.63;;;-143.36;nan
39209;BME280;24929;51.982;4.664;2022-12-29T09:34:10;76186.56;;;-143.36;nan
39209;BME280;24929;51.982;4.664;2022-12-29T09:36:35;76150.44;;;-143.36;nan
39209;BME280;24929;51.982;4.664;2022-12-29T09:39:01;76186.56;;;-143.36;nan
39209;BME280;24929;51.982;4.664;2022-12-29T09:41:38;76140.41;;;-143.36;nan
39209;BME280;24929;51.982;4.664;2022-12-29T09:44:37;76130.38;;;-143.36;nan
39209;BME280;24929;51.982;4.664;2022-12-29T09:47:11;76146.44;;;-143.36;nan
39209;BME280;24929;51.982;4.664;2022-12-29T09:49:51;76098.28;;;-143.36;nan
39209;BME280;24929;51.982;4.664;2022-12-29T09:52:21;76114.31;;;-143.36;nan
39209;BME280;24929;51.982;4.664;2022-12-29T09:54:55;76148.44;;;-143.36;nan
39209;BME280;24929;51.982;4.664;2022-12-29T09:57:27;76140.41;;;-143.36;nan
39209;BME280;24929;51.982;4.664;2022-12-29T10:00:03;76132.38;;;-143.36;nan
39209;BME280;24929;51.982;4.664;2022-12-29T10:05:39;76154.44;;;-143.36;nan
39209;BME280;24929;51.982;4.664;2022-12-29T10:08:20;76164.50;;;-143.36;nan
39209;BME280;24929;51.982;4.664;2022-12-29T10:16:26;76162.47;;;-143.36;nan
39209;BME280;24929;51.982;4.664;2022-12-29T10:21:41;76198.59;;;-143.36;nan
39209;BME280;24929;51.982;4.664;2022-12-29T10:24:12;76154.44;;;-143.36;nan
39209;BME280;24929;51.982;4.664;2022-12-29T10:26:43;76164.50;;;-143.36;nan
39209;BME280;24929;51.982;4.664;2022-12-29T10:29:32;76194.59;;;-143.36;nan
39209;BME280;24929;51.982;4.664;2022-12-29T10:32:06;76172.50;;;-143.36;nan
39209;BME280;24929;51.982;4.664;2022-12-29T10:34:44;76142.41;;;-143.36;nan
39209;BME280;24929;51.982;4.664;2022-12-29T10:39:55;76208.63;;;-143.36;nan
39209;BME280;24929;51.982;4.664;2022-12-29T10:42:41;76136.41;;;-143.36;nan
39209;BME280;24929;51.982;4.664;2022-12-29T10:45:29;76158.47;;;-143.36;nan
39209;BME280;24929;51.982;4.664;2022-12-29T10:50:25;76184.56;;;-143.36;nan
39209;BME280;24929;51.982;4.664;2022-12-29T10:52:51;76182.53;;;-143.36;nan
39209;BME280;24929;51.982;4.664;2022-12-29T10:55:22;76180.53;;;-143.36;nan
39209;BME280;24929;51.982;4.664;2022-12-29T10:57:50;76226.69;;;-143.36;nan
39209;BME280;24929;51.982;4.664;2022-12-29T11:00:21;76176.53;;;-143.36;nan
39209;BME280;24929;51.982;4.664;2022-12-29T11:02:57;76122.34;;;-143.36;nan
39209;BME280;24929;51.982;4.664;2022-12-29T11:08:10;76150.44;;;-143.36;nan
39209;BME280;24929;51.982;4.664;2022-12-29T11:10:39;76176.53;;;-143.36;nan
39209;BME280;24929;51.982;4.664;2022-12-29T11:13:24;76170.50;;;-143.36;nan
39209;BME280;24929;51.982;4.664;2022-12-29T11:15:50;76194.59;;;-143.36;nan
39209;BME280;24929;51.982;4.664;2022-12-29T11:18:28;76164.50;;;-143.36;nan
39209;BME280;24929;51.982;4.664;2022-12-29T11:20:59;76182.53;;;-143.36;nan
39209;BME280;24929;51.982;4.664;2022-12-29T11:23:39;76162.47;;;-143.36;nan
39209;BME280;24929;51.982;4.664;2022-12-29T11:26:20;76140.41;;;-143.36;nan
39209;BME280;24929;51.982;4.664;2022-12-29T11:31:47;76144.41;;;-143.36;nan
39209;BME280;24929;51.982;4.664;2022-12-29T11:34:25;76152.44;;;-143.36;nan
39209;BME280;24929;51.982;4.664;2022-12-29T11:36:54;76138.41;;;-143.36;nan
39209;BME280;24929;51.982;4.664;2022-12-29T11:39:34;76120.34;;;-143.36;nan
39209;BME280;24929;51.982;4.664;2022-12-29T11:42:02;76146.44;;;-143.36;nan
39209;BME280;24929;51.982;4.664;2022-12-29T11:44:36;76126.38;;;-143.36;nan
39209;BME280;24929;51.982;4.664;2022-12-29T11:47:02;76168.50;;;-143.36;nan
39209;BME280;24929;51.982;4.664;2022-12-29T11:49:29;76166.50;;;-143.36;nan
39209;BME280;24929;51.982;4.664;2022-12-29T11:51:55;76184.56;;;-143.36;nan
39209;BME280;24929;51.982;4.664;2022-12-29T11:54:31;76194.59;;;-143.36;nan
39209;BME280;24929;51.982;4.664;2022-12-29T11:57:09;76154.44;;;-143.36;nan
39209;BME280;24929;51.982;4.664;2022-12-29T11:59:40;76172.50;;;-143.36;nan
39209;BME280;24929;51.982;4.664;2022-12-29T12:02:45;76124.34;;;-143.36;nan
39209;BME280;24929;51.982;4.664;2022-12-29T12:05:20;76122.34;;;-143.36;nan
39209;BME280;24929;51.982;4.664;2022-12-29T12:07:49;76116.31;;;-143.36;nan
39209;BME280;24929;51.982;4.664;2022-12-29T12:10:36;76124.34;;;-143.36;nan
39209;BME280;24929;51.982;4.664;2022-12-29T12:16:06;76156.47;;;-143.36;nan
39209;BME280;24929;51.982;4.664;2022-12-29T12:21:20;76146.44;;;-143.36;nan
39209;BME280;24929;51.982;4.664;2022-12-29T12:26:21;76188.56;;;-143.36;nan
39209;BME280;24929;51.982;4.664;2022-12-29T12:28:58;76168.50;;;-143.36;nan
39209;BME280;24929;51.982;4.664;2022-12-29T12:34:03;76222.69;;;-143.36;nan
39209;BME280;24929;51.982;4.664;2022-12-29T13:01:04;76148.44;;;-143.36;nan
39209;BME280;24929;51.982;4.664;2022-12-29T13:14:33;76148.44;;;-143.36;nan
39209;BME280;24929;51.982;4.664;2022-12-29T13:17:18;76108.31;;;-143.36;nan
39209;BME280;24929;51.982;4.664;2022-12-29T13:20:15;76104.28;;;-143.36;nan
39209;BME280;24929;51.982;4.664;2022-12-29T13:31:07;76138.41;;;-143.36;nan
39209;BME280;24929;51.982;4.664;2022-12-29T13:36:51;76186.56;;;-143.36;nan
39209;BME280;24929;51.982;4.664;2022-12-29T13:39:25;76288.91;;;-143.36;nan
39209;BME280;24929;51.982;4.664;2022-12-29T13:41:54;76306.94;;;-143.36;nan
39209;BME280;24929;51.982;4.664;2022-12-29T13:44:42;76272.84;;;-143.36;nan
39209;BME280;24929;51.982;4.664;2022-12-29T13:49:50;76351.09;;;-143.36;nan
39209;BME280;24929;51.982;4.664;2022-12-29T13:58:09;76248.75;;;-143.36;nan
39209;BME280;24929;51.982;4.664;2022-12-29T14:01:08;76290.91;;;-143.36;nan
39209;BME280;24929;51.982;4.664;2022-12-29T14:08:44;76272.84;;;-143.36;nan
39209;BME280;24929;51.982;4.664;2022-12-29T14:11:11;76260.81;;;-143.36;nan
39209;BME280;24929;51.982;4.664;2022-12-29T14:13:41;76288.91;;;-143.36;nan
39209;BME280;24929;51.982;4.664;2022-12-29T14:16:22;76238.72;;;-143.36;nan
39209;BME280;24929;51.982;4.664;2022-12-29T14:18:50;76304.94;;;-143.36;nan
39209;BME280;24929;51.982;4.664;2022-12-29T14:23:41;76290.91;;;-143.36;nan
39209;BME280;24929;51.982;4.664;2022-12-29T14:28:41;76238.72;;;-143.36;nan
39209;BME280;24929;51.982;4.664;2022-12-29T14:33:39;76310.97;;;-143.36;nan
39209;BME280;24929;51.982;4.664;2022-12-29T14:36:26;76238.72;;;-143.36;nan
39209;BME280;24929;51.982;4.664;2022-12-29T14:38:58;76282.88;;;-143.36;nan
39209;BME280;24929;51.982;4.664;2022-12-29T14:44:01;76234.72;;;-143.36;nan
39209;BME280;24929;51.982;4.664;2022-12-29T14:49:20;76244.75;;;-143.36;nan
39209;BME280;24929;51.982;4.664;2022-12-29T14:51:49;76288.91;;;-143.36;nan
39209;BME280;24929;51.982;4.664;2022-12-29T14:56:59;76278.84;;;-143.36;nan
39209;BME280;24929;51.982;4.664;2022-12-29T14:59:27;76302.94;;;-143.36;nan
39209;BME280;24929;51.982;4.664;2022-12-29T15:01:55;76317.00;;;-143.36;nan
39209;BME280;24929;51.982;4.664;2022-12-29T15:04:31;76264.81;;;-143.36;nan
39209;BME280;24929;51.982;4.664;2022-12-29T15:06:59;76270.84;;;-143.36;nan
39209;BME280;24929;51.982;4.664;2022-12-29T15:09:37;76260.81;;;-143.36;nan
39209;BME280;24929;51.982;4.664;2022-12-29T15:14:53;76284.88;;;-143.36;nan
39209;BME280;24929;51.982;4.664;2022-12-29T15:17:27;76274.84;;;-143.36;nan
39209;BME280;24929;51.982;4.664;2022-12-29T15:19:54;76317.00;;;-143.36;nan
39209;BME280;24929;51.982;4.664;2022-12-29T15:22:20;76319.00;;;-143.36;nan
39209;BME280;24929;51.982;4.664;2022-12-29T15:24:46;76351.09;;;-143.36;nan
39209;BME280;24929;51.982;4.664;2022-12-29T15:27:18;76319.00;;;-143.36;nan
39209;BME280;24929;51.982;4.664;2022-12-29T15:29:45;76345.06;;;-143.36;nan
39209;BME280;24929;51.982;4.664;2022-12-29T15:32:23;76312.97;;;-143.36;nan
39209;BME280;24929;51.982;4.664;2022-12-29T15:34:54;76319.00;;;-143.36;nan
39209;BME280;24929;51.982;4.664;2022-12-29T15:39:47;76331.03;;;-143.36;nan